createdAt,value
2019-01-19T00:01:39.126Z,1.08
2019-01-19T00:07:20.328Z,1.03
2019-01-19T00:12:37.529Z,1.18
2019-01-19T00:18:21.746Z,1.06
2019-01-19T00:24:17.138Z,1.01
2019-01-19T00:30:00.747Z,0.99
2019-01-19T00:35:43.228Z,0.97
2019-01-19T00:41:22.685Z,1.02
2019-01-19T00:46:54.729Z,0.94
2019-01-19T00:52:37.746Z,0.94
2019-01-19T00:58:26.475Z,0.98
2019-01-19T01:04:01.228Z,1.08
2019-01-19T01:09:47.850Z,1.03
2019-01-19T01:15:37.728Z,1.09
2019-01-19T01:21:06.883Z,1.09
2019-01-19T01:27:03.999Z,1.08
2019-01-19T01:32:51.772Z,1.07
2019-01-19T01:38:07.651Z,1.12
2019-01-19T01:44:01.494Z,1.13
2019-01-19T01:49:33.220Z,1.14
2019-01-19T01:55:13.645Z,1.17
2019-01-19T02:00:57.715Z,1.15
2019-01-19T02:06:39.683Z,1.18
2019-01-19T02:12:29.050Z,1.20
2019-01-19T02:18:34.867Z,1.20
2019-01-19T02:23:53.511Z,1.17
2019-01-19T02:29:38.449Z,1.14
2019-01-19T02:35:32.725Z,1.10
2019-01-19T02:41:03.288Z,1.20
2019-01-19T02:46:55.769Z,1.25
2019-01-19T02:52:35.142Z,1.23
2019-01-19T02:58:28.913Z,1.18
2019-01-19T03:03:54.838Z,1.17
2019-01-19T03:09:24.385Z,1.10
2019-01-19T03:14:52.132Z,1.13
2019-01-19T03:20:34.150Z,1.20
2019-01-19T03:25:59.475Z,1.20
2019-01-19T03:31:51.640Z,1.18
2019-01-19T03:37:18.044Z,1.14
2019-01-19T03:42:57.830Z,1.12
2019-01-19T03:48:17.219Z,1.14
2019-01-19T03:54:13.047Z,1.15
2019-01-19T03:59:56.610Z,1.08
2019-01-19T04:05:31.314Z,1.20
2019-01-19T04:11:17.546Z,1.16
2019-01-19T04:17:14.301Z,1.13
2019-01-19T04:22:39.408Z,1.04
2019-01-19T04:27:43.429Z,0.78
2019-01-19T04:32:47.531Z,0.64
2019-01-19T04:37:51.579Z,0.49
2019-01-19T04:42:55.644Z,0.32
2019-01-19T04:47:59.630Z,0.21
2019-01-19T04:53:03.862Z,-0.22
2019-01-19T04:58:07.872Z,-0.73
2019-01-19T05:03:11.882Z,-1.14
2019-01-19T05:08:16.243Z,-1.47
2019-01-19T05:13:20.287Z,-1.65
2019-01-19T05:18:24.319Z,-1.88
2019-01-19T05:23:28.388Z,-2.03
2019-01-19T05:28:32.417Z,-2.11
2019-01-19T05:33:36.471Z,-2.36
2019-01-19T05:38:40.512Z,-2.53
2019-01-19T05:43:44.628Z,-2.63
2019-01-19T05:48:48.751Z,-2.76
2019-01-19T05:53:54.828Z,-2.81
2019-01-19T05:58:58.860Z,-2.85
2019-01-19T06:04:03.236Z,-2.86
2019-01-19T06:09:07.993Z,-2.86
2019-01-19T06:14:12.026Z,-2.96
2019-01-19T06:19:16.058Z,-2.99
2019-01-19T06:24:20.099Z,-3.21
2019-01-19T06:29:24.250Z,-3.32
2019-01-19T06:34:29.198Z,-3.34
2019-01-19T06:39:33.544Z,-3.34
2019-01-19T06:44:37.645Z,-3.49
2019-01-19T06:49:44.479Z,-3.49
2019-01-19T06:54:48.942Z,-3.49
2019-01-19T06:59:53.007Z,-3.44
2019-01-19T07:04:57.023Z,-3.51
2019-01-19T07:10:01.090Z,-3.52
2019-01-19T07:15:06.236Z,-3.61
2019-01-19T07:20:13.050Z,-3.65
2019-01-19T07:25:17.188Z,-3.58
2019-01-19T07:30:21.259Z,-3.60
2019-01-19T07:35:25.316Z,-3.49
2019-01-19T07:40:29.369Z,-3.33
2019-01-19T07:45:33.394Z,-3.30
2019-01-19T07:50:37.614Z,-3.37
2019-01-19T07:55:41.934Z,-3.31
2019-01-19T08:00:46.061Z,-3.11
2019-01-19T08:05:50.122Z,-3.03
2019-01-19T08:10:54.238Z,-2.91
2019-01-19T08:15:58.286Z,-2.73
2019-01-19T08:21:02.434Z,-2.46
2019-01-19T08:26:06.501Z,-2.28
2019-01-19T08:31:10.552Z,-2.10
2019-01-19T08:36:14.611Z,-1.84
2019-01-19T08:41:18.712Z,-1.76
2019-01-19T08:46:22.761Z,-1.58
2019-01-19T08:51:26.919Z,-1.44
2019-01-19T08:56:31.145Z,-1.31
2019-01-19T09:01:35.224Z,-1.17
2019-01-19T09:06:39.305Z,-0.94
2019-01-19T09:11:43.374Z,-0.68
2019-01-19T09:16:47.418Z,-0.48
2019-01-19T09:21:51.526Z,-0.27
2019-01-19T09:26:55.770Z,-0.09
2019-01-19T09:31:59.872Z,0.24
2019-01-19T09:37:04.240Z,0.39
2019-01-19T09:42:08.268Z,0.67
2019-01-19T09:47:12.353Z,0.90
2019-01-19T09:52:21.163Z,1.13
2019-01-19T09:57:22.443Z,1.27
2019-01-19T10:02:26.521Z,1.25
2019-01-19T10:07:30.521Z,1.53
2019-01-19T10:12:34.615Z,1.67
2019-01-19T10:17:38.746Z,2.06
2019-01-19T10:22:42.837Z,2.64
2019-01-19T10:27:46.899Z,4.59
2019-01-19T10:32:50.977Z,6.05
2019-01-19T10:37:56.649Z,6.56
2019-01-19T10:43:00.935Z,6.43
2019-01-19T10:48:05.170Z,6.52
2019-01-19T10:53:09.317Z,6.40
2019-01-19T10:58:13.784Z,6.07
2019-01-19T11:03:18.074Z,6.33
2019-01-19T11:08:24.001Z,6.91
2019-01-19T11:13:28.459Z,6.10
2019-01-19T11:18:32.711Z,6.21
2019-01-19T11:23:41.026Z,6.01
2019-01-19T11:28:45.199Z,5.54
2019-01-19T11:33:49.325Z,5.81
2019-01-19T11:38:53.392Z,6.02
2019-01-19T11:43:57.454Z,6.10
2019-01-19T11:49:01.582Z,5.89
2019-01-19T11:54:06.884Z,5.67
2019-01-19T11:59:10.963Z,5.90
2019-01-19T12:04:15.229Z,5.77
2019-01-19T12:09:19.259Z,5.00
2019-01-19T12:14:23.357Z,4.54
2019-01-19T12:19:27.396Z,4.47
2019-01-19T12:24:31.429Z,4.49
2019-01-19T12:29:35.534Z,4.58
2019-01-19T12:34:40.284Z,4.65
2019-01-19T12:39:44.257Z,4.56
2019-01-19T12:44:48.624Z,4.65
2019-01-19T12:49:52.676Z,4.44
2019-01-19T12:54:56.731Z,4.51
2019-01-19T13:00:00.807Z,4.35
2019-01-19T13:05:08.406Z,4.19
2019-01-19T13:10:19.055Z,4.12
2019-01-19T13:16:05.715Z,4.07
2019-01-19T13:22:08.454Z,4.05
2019-01-19T13:27:34.304Z,3.81
2019-01-19T13:33:22.289Z,3.66
2019-01-19T13:39:05.916Z,3.51
2019-01-19T13:44:41.457Z,3.37
2019-01-19T13:50:22.635Z,3.06
2019-01-19T13:55:50.956Z,2.79
2019-01-19T14:01:48.109Z,2.68
2019-01-19T14:07:48.228Z,2.57
2019-01-19T14:13:32.920Z,2.36
2019-01-19T14:19:04.962Z,2.17
2019-01-19T14:24:55.943Z,2.17
2019-01-19T14:30:39.638Z,2.01
2019-01-19T14:36:27.780Z,1.84
2019-01-19T14:42:03.663Z,1.52
2019-01-19T14:47:21.985Z,1.20
2019-01-19T14:53:01.165Z,0.96
2019-01-19T14:58:40.658Z,0.73
2019-01-19T15:04:21.535Z,0.48
2019-01-19T15:09:57.128Z,0.27
2019-01-19T15:15:35.915Z,0.16
2019-01-19T15:21:31.828Z,-0.20
2019-01-19T15:27:31.775Z,-0.33
2019-01-19T15:33:15.385Z,-0.69
2019-01-19T15:39:11.032Z,-0.98
2019-01-19T15:44:46.746Z,-0.97
2019-01-19T15:50:37.150Z,-1.11
2019-01-19T15:56:28.656Z,-1.26
2019-01-19T16:02:18.438Z,-1.45
2019-01-19T16:07:59.350Z,-1.44
2019-01-19T16:13:19.612Z,-1.64
2019-01-19T16:18:55.162Z,-1.97
2019-01-19T16:24:26.091Z,-2.24
2019-01-19T16:29:57.391Z,-2.41
2019-01-19T16:35:52.169Z,-2.56
2019-01-19T16:41:40.497Z,-2.81
2019-01-19T16:47:25.700Z,-2.89
2019-01-19T16:53:03.592Z,-2.78
2019-01-19T16:58:38.118Z,-2.72
2019-01-19T17:04:19.526Z,-2.86
2019-01-19T17:10:19.875Z,-2.99
2019-01-19T17:15:39.300Z,-3.15
2019-01-19T17:21:24.974Z,-3.33
2019-01-19T17:27:03.025Z,-3.36
2019-01-19T17:32:32.870Z,-3.31
2019-01-19T17:38:09.623Z,-3.36
2019-01-19T17:43:40.269Z,-3.42
2019-01-19T17:49:06.981Z,-3.57
2019-01-19T17:54:41.069Z,-3.65
2019-01-19T17:59:58.920Z,-3.67
2019-01-19T18:05:46.861Z,-3.76
2019-01-19T18:11:37.345Z,-3.83
2019-01-19T18:17:34.265Z,-3.87
2019-01-19T18:23:17.886Z,-3.80
2019-01-19T18:29:06.054Z,-3.88
2019-01-19T18:34:45.939Z,-3.95
2019-01-19T18:40:07.394Z,-3.92
2019-01-19T18:45:46.332Z,-3.79
2019-01-19T18:51:35.728Z,-3.42
2019-01-19T18:57:49.607Z,-3.46
2019-01-19T19:03:37.830Z,-3.70
2019-01-19T19:09:38.347Z,-3.74
2019-01-19T19:15:06.300Z,-3.94
2019-01-19T19:21:03.718Z,-4.09
2019-01-19T19:26:32.879Z,-4.27
2019-01-19T19:32:13.610Z,-4.44
2019-01-19T19:38:01.498Z,-4.48
2019-01-19T19:43:46.533Z,-4.46
2019-01-19T19:49:23.319Z,-4.25
2019-01-19T19:54:31.650Z,-4.21
2019-01-19T19:59:39.248Z,-4.33
2019-01-19T20:04:50.141Z,-4.43
2019-01-19T20:09:57.070Z,-4.58
2019-01-19T20:15:07.452Z,-4.67
2019-01-19T20:20:12.590Z,-4.53
2019-01-19T20:25:18.623Z,-4.66
2019-01-19T20:30:24.270Z,-4.76
2019-01-19T20:35:28.798Z,-4.87
2019-01-19T20:40:35.646Z,-4.98
2019-01-19T20:45:42.686Z,-5.11
2019-01-19T20:50:47.168Z,-5.20
2019-01-19T20:55:51.973Z,-5.29
2019-01-19T21:00:56.155Z,-5.33
2019-01-19T21:06:00.730Z,-5.37
2019-01-19T21:11:05.857Z,-5.45
2019-01-19T21:16:09.894Z,-5.46
2019-01-19T21:21:14.254Z,-5.47
2019-01-19T21:26:18.596Z,-5.50
2019-01-19T21:31:22.675Z,-5.56
2019-01-19T21:36:28.199Z,-5.43
2019-01-19T21:41:32.255Z,-5.08
2019-01-19T21:46:36.740Z,-5.14
2019-01-19T21:51:40.908Z,-5.30
2019-01-19T21:56:44.969Z,-5.45
2019-01-19T22:01:49.075Z,-5.53
2019-01-19T22:06:53.333Z,-5.45
2019-01-19T22:11:58.303Z,-5.47
2019-01-19T22:17:02.543Z,-5.58
2019-01-19T22:22:06.578Z,-5.72
2019-01-19T22:27:10.691Z,-5.78
2019-01-19T22:32:14.982Z,-5.84
2019-01-19T22:37:19.081Z,-5.79
2019-01-19T22:42:23.144Z,-5.80
2019-01-19T22:47:27.198Z,-5.90
2019-01-19T22:52:31.288Z,-5.94
2019-01-19T22:57:35.564Z,-5.99
2019-01-19T23:02:41.809Z,-6.02
2019-01-19T23:07:45.938Z,-6.05
2019-01-19T23:12:52.692Z,-6.05
2019-01-19T23:17:57.930Z,-6.11
2019-01-19T23:23:03.220Z,-6.05
2019-01-19T23:28:08.464Z,-5.95
2019-01-19T23:33:12.662Z,-5.64
2019-01-19T23:38:16.716Z,-5.41
2019-01-19T23:43:20.813Z,-5.44
2019-01-19T23:48:24.901Z,-5.68
2019-01-19T23:53:28.967Z,-5.80
2019-01-19T23:58:33.005Z,-5.92
